createdAt,value
2023-02-22T00:02:51.161Z,5.57
2023-02-22T00:06:24.394Z,5.46
2023-02-22T00:09:24.219Z,5.33
2023-02-22T00:12:29.788Z,5.25
2023-02-22T00:15:28.750Z,5.21
2023-02-22T00:18:41.612Z,5.15
2023-02-22T00:21:47.101Z,5.06
2023-02-22T00:24:38.050Z,4.98
2023-02-22T00:27:23.292Z,4.91
2023-02-22T00:30:16.775Z,4.82
2023-02-22T00:33:33.354Z,4.73
2023-02-22T00:37:08.661Z,4.65
2023-02-22T00:41:07.712Z,4.55
2023-02-22T00:44:20.165Z,4.43
2023-02-22T00:47:08.686Z,4.36
2023-02-22T00:50:07.657Z,4.30
2023-02-22T00:52:59.788Z,4.23
2023-02-22T00:56:26.189Z,4.18
2023-02-22T00:59:13.290Z,4.12
2023-02-22T01:02:01.284Z,4.06
2023-02-22T01:04:54.716Z,3.98
2023-02-22T01:07:55.966Z,3.93
2023-02-22T01:11:12.941Z,3.87
2023-02-22T01:14:09.802Z,3.81
2023-02-22T01:17:10.433Z,3.77
2023-02-22T01:22:30.144Z,3.71
2023-02-22T01:23:03.797Z,3.67
2023-02-22T01:25:50.795Z,3.64
2023-02-22T01:29:10.462Z,3.59
2023-02-22T01:32:24.027Z,3.54
2023-02-22T01:35:23.555Z,3.46
2023-02-22T01:38:07.483Z,3.39
2023-02-22T01:44:24.750Z,3.24
2023-02-22T01:47:32.551Z,3.18
2023-02-22T01:50:53.069Z,3.11
2023-02-22T01:54:19.006Z,3.06
2023-02-22T01:57:32.518Z,3.03
2023-02-22T02:00:19.788Z,2.98
2023-02-22T02:03:41.452Z,2.95
2023-02-22T02:06:44.767Z,2.88
2023-02-22T02:10:10.099Z,2.83
2023-02-22T02:13:15.263Z,2.78
2023-02-22T02:16:05.928Z,2.72
2023-02-22T02:19:02.322Z,2.70
2023-02-22T02:22:41.047Z,2.70
2023-02-22T02:26:35.859Z,2.66
2023-02-22T02:29:39.114Z,2.62
2023-02-22T02:32:52.232Z,2.59
2023-02-22T02:35:48.605Z,2.57
2023-02-22T02:38:54.433Z,2.57
2023-02-22T02:41:33.813Z,2.58
2023-02-22T02:44:12.561Z,2.58
2023-02-22T02:47:00.470Z,2.58
2023-02-22T02:49:46.966Z,2.59
2023-02-22T02:52:18.212Z,2.61
2023-02-22T02:54:51.617Z,2.63
2023-02-22T02:57:52.893Z,2.64
2023-02-22T03:00:54.685Z,2.64
2023-02-22T03:04:15.182Z,2.63
2023-02-22T03:07:24.787Z,2.62
2023-02-22T03:10:54.992Z,2.61
2023-02-22T03:13:52.045Z,2.56
2023-02-22T03:16:29.443Z,2.51
2023-02-22T03:19:56.101Z,2.48
2023-02-22T03:23:23.734Z,2.44
2023-02-22T03:26:44.605Z,2.40
2023-02-22T03:30:17.544Z,2.36
2023-02-22T03:33:35.987Z,2.33
2023-02-22T03:37:14.234Z,2.30
2023-02-22T03:47:30.816Z,2.34
2023-02-22T03:51:15.566Z,2.39
2023-02-22T03:54:30.402Z,2.39
2023-02-22T03:57:29.768Z,2.41
2023-02-22T04:00:33.419Z,2.42
2023-02-22T04:03:42.905Z,2.44
2023-02-22T04:07:21.839Z,2.45
2023-02-22T04:10:26.012Z,2.45
2023-02-22T04:13:07.360Z,2.44
2023-02-22T04:15:40.283Z,2.46
2023-02-22T04:18:13.781Z,2.47
2023-02-22T04:20:44.379Z,2.50
2023-02-22T04:23:34.387Z,2.52
2023-02-22T04:26:25.853Z,2.53
2023-02-22T04:29:41.101Z,2.55
2023-02-22T04:33:15.320Z,2.58
2023-02-22T04:37:27.937Z,2.62
2023-02-22T04:41:20.477Z,2.66
2023-02-22T04:43:57.663Z,2.70
2023-02-22T04:46:58.992Z,2.75
2023-02-22T04:49:47.850Z,2.79
2023-02-22T04:52:50.008Z,2.85
2023-02-22T04:56:24.008Z,2.90
2023-02-22T04:59:13.628Z,2.92
2023-02-22T05:02:17.747Z,2.94
2023-02-22T05:05:30.543Z,2.96
2023-02-22T05:08:13.070Z,2.97
2023-02-22T05:11:14.815Z,2.95
2023-02-22T05:17:15.860Z,2.86
2023-02-22T05:20:03.393Z,2.85
2023-02-22T05:23:07.858Z,2.83
2023-02-22T05:25:57.767Z,2.80
2023-02-22T05:29:16.464Z,2.74
2023-02-22T05:32:09.220Z,2.69
2023-02-22T05:38:46.387Z,2.61
2023-02-22T05:45:28.630Z,2.54
2023-02-22T05:48:46.660Z,2.55
2023-02-22T05:52:27.518Z,2.59
2023-02-22T05:55:20.136Z,2.64
2023-02-22T05:58:08.176Z,2.70
2023-02-22T06:04:54.112Z,2.72
2023-02-22T06:08:47.156Z,2.75
2023-02-22T06:11:49.948Z,2.81
2023-02-22T06:14:57.742Z,2.88
2023-02-22T06:18:36.272Z,2.94
2023-02-22T06:22:24.399Z,3.00
2023-02-22T06:25:58.610Z,3.07
2023-02-22T06:29:52.937Z,3.15
2023-02-22T06:33:51.164Z,3.24
2023-02-22T06:37:00.037Z,3.31
2023-02-22T06:40:05.284Z,3.39
2023-02-22T06:43:27.270Z,3.49
2023-02-22T06:56:29.922Z,3.98
2023-02-22T06:59:32.014Z,4.10
2023-02-22T07:02:48.570Z,4.19
2023-02-22T07:06:10.855Z,4.34
2023-02-22T07:09:20.050Z,4.53
2023-02-22T07:12:51.547Z,4.71
2023-02-22T07:19:48.770Z,4.87
2023-02-22T07:22:48.128Z,4.95
2023-02-22T07:26:19.872Z,5.12
2023-02-22T07:29:13.085Z,5.30
2023-02-22T07:32:20.905Z,5.51
2023-02-22T07:36:04.035Z,5.61
2023-02-22T07:38:32.590Z,5.68
2023-02-22T07:44:57.342Z,5.70
2023-02-22T07:48:17.285Z,5.51
2023-02-22T07:52:04.580Z,5.38
2023-02-22T07:55:06.747Z,5.21
2023-02-22T07:57:42.195Z,5.10
2023-02-22T08:00:50.422Z,5.06
2023-02-22T08:03:39.485Z,5.11
2023-02-22T08:06:57.093Z,5.24
2023-02-22T08:10:11.687Z,5.51
2023-02-22T08:13:01.771Z,5.82
2023-02-22T08:16:13.446Z,6.08
2023-02-22T08:19:34.207Z,6.23
2023-02-22T08:22:32.866Z,6.18
2023-02-22T08:26:35.052Z,6.11
2023-02-22T08:29:42.240Z,6.07
2023-02-22T08:33:07.010Z,6.01
2023-02-22T08:36:13.441Z,5.98
2023-02-22T08:39:35.376Z,5.94
2023-02-22T08:47:04.382Z,6.08
2023-02-22T08:49:57.484Z,6.32
2023-02-22T08:57:12.911Z,6.61
2023-02-22T09:05:56.210Z,6.44
2023-02-22T09:54:25.283Z,8.07
2023-02-22T10:36:16.899Z,7.29
2023-02-22T10:39:51.898Z,7.27
2023-02-22T10:52:52.235Z,7.34
2023-02-22T10:56:42.791Z,7.40
2023-02-22T11:00:40.594Z,7.37
2023-02-22T11:06:24.444Z,7.24
2023-02-22T11:09:00.592Z,7.17
2023-02-22T11:12:44.616Z,7.24
2023-02-22T11:15:52.440Z,7.32
2023-02-22T11:19:23.314Z,7.38
2023-02-22T11:36:53.786Z,7.65
2023-02-22T11:40:29.279Z,7.71
2023-02-22T11:43:22.800Z,7.67
2023-02-22T11:47:02.034Z,7.69
2023-02-22T11:51:20.235Z,7.67
2023-02-22T11:55:49.237Z,7.55
2023-02-22T11:59:29.447Z,7.48
2023-02-22T12:09:30.728Z,7.16
2023-02-22T12:13:07.875Z,7.18
2023-02-22T12:19:40.056Z,7.37
2023-02-22T12:44:17.882Z,7.44
2023-02-22T12:46:56.498Z,7.30
2023-02-22T12:50:30.890Z,7.25
2023-02-22T12:58:04.311Z,7.31
2023-02-22T13:01:06.607Z,7.48
2023-02-22T13:03:56.788Z,7.61
2023-02-22T13:07:36.834Z,7.58
2023-02-22T13:11:06.181Z,7.49
2023-02-22T13:14:58.944Z,7.37
2023-02-22T13:18:30.002Z,7.32
2023-02-22T13:32:17.821Z,7.34
2023-02-22T13:51:47.397Z,7.05
2023-02-22T13:55:02.808Z,7.05
2023-02-22T13:58:07.206Z,7.07
2023-02-22T14:01:15.054Z,7.01
2023-02-22T14:04:40.666Z,6.95
2023-02-22T14:08:00.163Z,6.92
2023-02-22T14:19:12.666Z,6.92
2023-02-22T14:22:11.443Z,6.86
2023-02-22T14:25:27.808Z,6.77
2023-02-22T14:29:29.673Z,6.70
2023-02-22T14:32:40.258Z,6.62
2023-02-22T14:36:27.307Z,6.52
2023-02-22T14:39:36.542Z,6.46
2023-02-22T14:42:49.697Z,6.43
2023-02-22T14:50:00.203Z,6.34
2023-02-22T14:53:04.679Z,6.28
2023-02-22T14:56:34.841Z,6.28
2023-02-22T15:00:47.162Z,6.28
2023-02-22T15:04:07.276Z,6.24
2023-02-22T15:08:28.723Z,6.18
2023-02-22T15:11:56.038Z,6.05
2023-02-22T15:19:17.491Z,5.75
2023-02-22T15:30:34.173Z,5.45
2023-02-22T15:34:27.861Z,5.37
2023-02-22T15:38:08.925Z,5.32
2023-02-22T15:45:51.935Z,5.21
2023-02-22T15:50:26.597Z,5.08
2023-02-22T15:53:33.032Z,4.99
2023-02-22T17:17:13.705Z,5.22
2023-02-22T17:24:56.985Z,4.37
2023-02-22T18:42:33.613Z,2.45
2023-02-22T18:50:43.230Z,2.38
2023-02-22T19:06:06.224Z,2.06
2023-02-22T19:13:16.557Z,1.93
2023-02-22T19:21:28.268Z,1.79
2023-02-22T19:24:52.392Z,1.72
2023-02-22T20:32:22.745Z,0.95
2023-02-22T20:35:20.989Z,0.89
2023-02-22T20:41:50.706Z,0.84
2023-02-22T21:21:14.764Z,1.65
2023-02-22T21:46:29.580Z,0.49
2023-02-22T22:03:34.774Z,0.30
2023-02-22T22:11:21.033Z,0.21
2023-02-22T22:14:37.681Z,0.14
2023-02-22T22:18:08.621Z,0.12
2023-02-22T22:21:34.070Z,0.14
2023-02-22T22:24:46.081Z,0.13
2023-02-22T22:27:56.022Z,0.13
2023-02-22T22:31:23.522Z,0.11
2023-02-22T22:34:29.331Z,0.08
2023-02-22T22:37:19.333Z,0.09
2023-02-22T22:40:52.322Z,0.06
2023-02-22T22:43:42.583Z,0.04
2023-02-22T22:46:31.125Z,0.04
2023-02-22T22:49:53.280Z,0.03
2023-02-22T22:52:44.511Z,0.03
2023-02-22T22:55:52.978Z,0.02
2023-02-22T22:58:48.886Z,-0.00
2023-02-22T23:01:50.291Z,-0.02
2023-02-22T23:04:50.903Z,-0.02
2023-02-22T23:07:50.966Z,-0.01
2023-02-22T23:11:32.534Z,-0.04
2023-02-22T23:14:43.757Z,-0.06
2023-02-22T23:17:44.147Z,-0.08
2023-02-22T23:20:39.857Z,-0.07
2023-02-22T23:23:55.646Z,-0.05
2023-02-22T23:27:28.831Z,-0.06
2023-02-22T23:30:34.873Z,-0.08
2023-02-22T23:33:38.647Z,-0.08
2023-02-22T23:36:36.735Z,-0.08
2023-02-22T23:39:24.810Z,-0.08
2023-02-22T23:42:25.465Z,-0.08
2023-02-22T23:45:27.457Z,-0.09
2023-02-22T23:48:26.227Z,-0.08
2023-02-22T23:51:11.585Z,-0.07
2023-02-22T23:54:13.885Z,-0.05
2023-02-22T23:57:00.484Z,-0.06
2023-02-22T23:59:41.451Z,-0.06
